Bontekoning — PH9144 — position and weather

sailwx.info

Track history (hours):
 
Tides and Currents Weather Stations Pressure Air Temp Water Temp Dewpoint Dewpoint Depression Visibility Wind Speed Wind Dir Waves Ship Positions

Bontekoning

Last reported at 2017-Aug-13 02:54 UTC. Time now 2017-Aug-17 05:59 UTC.
Position N 46°49' W 006°05'.

; draft 2.6 m.

Type: Sailing vessel. MMSI: 244107000.

Date/timePositionNaut miles runAvg speedWind from/ knotsBaromVisibWave heightAir tempDewpointWater temp
2017-Aug-13 02:54N 46°49' W 006°05'3 6.8
2017-Aug-13 02:30N 46°51' W 006°03'4 7.0
2017-Aug-13 02:00N 46°54' W 006°00'5 7.3
2017-Aug-13 01:18N 46°58' W 005°57'4 7.4
2017-Aug-13 00:48N 47°02' W 005°54'3 7.6
2017-Aug-13 00:28N 47°04' W 005°52'4 8.5
2017-Aug-12 23:58N 47°08' W 005°49'4 8.3
2017-Aug-12 23:29N 47°11' W 005°47'5 8.0
2017-Aug-12 22:49N 47°16' W 005°43'3 8.4
2017-Aug-12 22:29N 47°19' W 005°41'5 9.1
2017-Aug-12 21:58N 47°23' W 005°39'6 7.2
2017-Aug-12 21:11N 47°28' W 005°35'3 6.6
2017-Aug-12 20:47N 47°30' W 005°33'2 8.1
2017-Aug-12 20:30N 47°32' W 005°32'4 8.0
2017-Aug-12 19:59N 47°36' W 005°29'4 7.8
2017-Aug-12 19:27N 47°40' W 005°26'3 7.6
2017-Aug-12 19:00N 47°43' W 005°24'5 7.5
2017-Aug-12 18:21N 47°47' W 005°21'3 7.2
2017-Aug-12 18:00N 47°49' W 005°19'3 6.5
2017-Aug-12 17:30N 47°52' W 005°17'3 6.0
2017-Aug-12 16:59N 47°55' W 005°15'3 6.2
2017-Aug-12 16:30N 47°58' W 005°13'3 6.0
2017-Aug-12 16:00N 48°01' W 005°11'3 5.8
2017-Aug-12 15:30N 48°03' W 005°09'3 5.1
2017-Aug-12 15:00N 48°04' W 005°06'4 7.2
2017-Aug-12 14:30N 48°06' W 005°01'2 3.7
2017-Aug-12 14:00N 48°07' W 004°58'2 3.2
2017-Aug-12 13:30N 48°08' W 004°57'2 3.3
2017-Aug-12 13:00N 48°09' W 004°55'2 3.7
2017-Aug-12 12:30N 48°10' W 004°53'2 4.9
2017-Aug-12 12:00N 48°12' W 004°51'4 7.4
2017-Aug-12 11:30N 48°14' W 004°46'4 8.6
2017-Aug-12 11:00N 48°17' W 004°41'4 8.9
2017-Aug-12 10:30N 48°20' W 004°36'5 9.1
2017-Aug-12 10:00N 48°22' W 004°30'3 6.5
2017-Aug-12 09:31N 48°24' W 004°26'0 0.0
2017-Aug-12 09:00N 48°24' W 004°26'0 0.0
2017-Aug-12 08:30N 48°24' W 004°26'0 0.0
2017-Aug-12 08:00N 48°24' W 004°26'0 0.0
2017-Aug-12 07:30N 48°24' W 004°26'0 0.0
2017-Aug-12 07:00N 48°24' W 004°26'0 0.0
2017-Aug-12 06:30N 48°24' W 004°26'0 0.0
2017-Aug-12 06:00N 48°24' W 004°26'0 0.0
2017-Aug-12 05:30N 48°24' W 004°26'0 0.0
2017-Aug-12 05:00N 48°24' W 004°26'0 0.0
2017-Aug-12 04:30N 48°24' W 004°26'0 0.0
2017-Aug-12 04:00N 48°24' W 004°26'0 0.0
2017-Aug-12 03:30N 48°24' W 004°26'0 0.0
2017-Aug-12 03:00N 48°24' W 004°26'0 0.0
2017-Aug-12 02:30N 48°24' W 004°26'0 0.0
2017-Aug-12 02:00N 48°24' W 004°26'0 0.0
2017-Aug-12 01:30N 48°24' W 004°26'0 0.0
2017-Aug-12 01:00N 48°24' W 004°26'0 0.0
2017-Aug-12 00:30N 48°24' W 004°26'0 0.0
2017-Aug-12 00:00N 48°24' W 004°26'0 0.0
2017-Aug-11 23:30N 48°24' W 004°26'0 0.0
2017-Aug-11 23:00N 48°24' W 004°26'0 0.0
2017-Aug-11 22:30N 48°24' W 004°26'0 0.0
2017-Aug-11 22:00N 48°24' W 004°26'0 0.0
2017-Aug-11 21:30N 48°24' W 004°26'0 0.0
2017-Aug-11 21:00N 48°24' W 004°26'0 0.0
2017-Aug-11 20:30N 48°24' W 004°26'0 0.0
2017-Aug-11 20:00N 48°24' W 004°26'0 0.0
2017-Aug-11 19:30N 48°24' W 004°26'0 0.0
2017-Aug-11 19:00N 48°24' W 004°26'0 0.0
2017-Aug-11 18:30N 48°24' W 004°26'0 0.0
2017-Aug-11 18:00N 48°24' W 004°26'0 0.0
2017-Aug-11 17:30N 48°24' W 004°26'0 0.0
2017-Aug-11 17:00N 48°24' W 004°26'0 0.0
2017-Aug-11 16:30N 48°24' W 004°26'0 0.0
2017-Aug-11 16:00N 48°24' W 004°26'0 0.0
2017-Aug-11 15:30N 48°24' W 004°26'0 0.0
2017-Aug-11 15:00N 48°24' W 004°26'0 0.0
2017-Aug-11 14:30N 48°24' W 004°26'0 0.0
2017-Aug-11 13:30N 48°24' W 004°26'0 0.0
2017-Aug-11 13:01N 48°24' W 004°26'0 0.0
2017-Aug-11 12:30N 48°24' W 004°26'0 0.0
2017-Aug-11 12:00N 48°24' W 004°26'0 0.0
2017-Aug-11 11:30N 48°24' W 004°26'1 2.0
2017-Aug-11 11:00N 48°23' W 004°26'3 6.3
2017-Aug-11 10:30N 48°22' W 004°31'2 4.7
2017-Aug-11 10:00N 48°21' W 004°34'2 4.2
2017-Aug-11 09:30N 48°20' W 004°37'3 5.7
2017-Aug-11 09:00N 48°19' W 004°41'3 6.7
2017-Aug-11 08:31N 48°17' W 004°46'4 7.3
2017-Aug-11 08:00N 48°17' W 004°51'4 7.7
2017-Aug-11 07:30N 48°18' W 004°57'4 7.5
2017-Aug-11 07:00N 48°20' W 005°01'3 7.0
2017-Aug-11 06:30N 48°22' W 005°05'3 6.5
2017-Aug-11 06:00N 48°24' W 005°08'2 4.9
2017-Aug-11 05:30N 48°27' W 005°10'2 3.3
2017-Aug-11 05:00N 48°28' W 005°11'2 3.1
2017-Aug-11 04:30N 48°30' W 005°11'1 2.3
2017-Aug-11 04:00N 48°30' W 005°10'1 2.5
2017-Aug-11 03:30N 48°31' W 005°08'1 2.8
2017-Aug-11 03:00N 48°31' W 005°06'3 5.7
2017-Aug-11 02:30N 48°32' W 005°02'3 6.2
2017-Aug-11 02:00N 48°32' W 004°58'3 6.9
2017-Aug-11 01:30N 48°33' W 004°52'3 6.8
2017-Aug-11 01:00N 48°35' W 004°48'4 8.2
2017-Aug-11 00:30N 48°38' W 004°43'5 9.5
2017-Aug-11 00:00N 48°40' W 004°37'5 9.6
2017-Aug-10 23:30N 48°42' W 004°30'510.3
2017-Aug-10 23:00N 48°44' W 004°23'5 9.3
2017-Aug-10 22:30N 48°45' W 004°16'5 8.5
2017-Aug-10 21:55N 48°47' W 004°09'8 5.4
2017-Aug-10 20:24N 48°44' W 003°58'0 0.0
2017-Aug-10 20:00N 48°44' W 003°58'  
2017-Aug-07 10:39N 49°45' W 001°59'1 9.7
2017-Aug-07 10:30N 49°46' W 001°57'4 8.4
2017-Aug-07 10:00N 49°46' W 001°51'3 6.2
2017-Aug-07 09:30N 49°47' W 001°46'2 3.0
2017-Aug-07 09:01N 49°48' W 001°48'2 3.5
2017-Aug-07 08:30N 49°48' W 001°51'2 4.4
2017-Aug-07 08:00N 49°47' W 001°54'2 3.1
2017-Aug-07 07:31N 49°46' W 001°53'2 3.1
2017-Aug-07 07:00N 49°46' W 001°50'2 3.7
2017-Aug-07 06:31N 49°46' W 001°48'2 4.7
2017-Aug-07 06:00N 49°45' W 001°44'3 5.2
2017-Aug-07 05:30N 49°44' W 001°40'3 5.8
2017-Aug-07 05:01N 49°43' W 001°36'4 7.3
2017-Aug-07 04:30N 49°46' W 001°34'4 7.8
2017-Aug-07 04:00N 49°50' W 001°32'4 8.1
2017-Aug-07 03:30N 49°53' W 001°28'5 9.7
2017-Aug-07 03:01N 49°53' W 001°21'4 8.9
2017-Aug-07 02:30N 49°56' W 001°15'5 9.5
2017-Aug-07 02:00N 49°59' W 001°10'5 9.4
2017-Aug-07 01:30N 50°02' W 001°04'5 9.2
2017-Aug-07 00:59N 50°06' W 000°59'27 7.5
2017-Aug-06 21:23N 50°27' W 000°33'2 5.7
2017-Aug-06 20:58N 50°29' W 000°32'3 5.4
2017-Aug-06 20:30N 50°32' W 000°31'3 5.0
2017-Aug-06 20:00N 50°34' W 000°29'3 5.5
2017-Aug-06 19:30N 50°37' W 000°28'3 6.0
2017-Aug-06 19:00N 50°39' W 000°26'3 6.0
2017-Aug-06 18:30N 50°42' W 000°25'2 4.2
2017-Aug-06 18:00N 50°44' W 000°22'3 5.2
2017-Aug-06 17:30N 50°43' W 000°18'3 5.0
2017-Aug-06 17:00N 50°45' W 000°15'3 5.7
2017-Aug-06 16:30N 50°47' W 000°13'2 3.9
2017-Aug-06 16:00N 50°48' W 000°11'3 5.2
2017-Aug-06 15:30N 50°47' W 000°07'3 5.4
2017-Aug-06 15:00N 50°46' W 000°03'3 5.6
2017-Aug-06 14:30N 50°45' E 000°01'3 5.8
2017-Aug-06 14:00N 50°44' E 000°05'3 6.6
2017-Aug-06 13:30N 50°43' E 000°10'3 5.6
2017-Aug-06 13:00N 50°43' E 000°15'4 5.4
2017-Aug-06 12:18N 50°44' E 000°20'2 5.7
2017-Aug-06 11:55N 50°44' E 000°24'2 5.9
2017-Aug-06 11:30N 50°45' E 000°27'3 5.5
2017-Aug-06 10:59N 50°47' E 000°31'3 5.5
2017-Aug-06 10:29N 50°48' E 000°35'3 5.3
2017-Aug-06 09:59N 50°49' E 000°39'3 5.3
2017-Aug-06 09:30N 50°50' E 000°43'3 5.4
2017-Aug-06 08:59N 50°51' E 000°47'3 5.2
2017-Aug-06 08:30N 50°52' E 000°50'3 5.4
2017-Aug-06 07:53N 50°53' E 000°55'2 5.8
2017-Aug-06 07:30N 50°54' E 000°59'3 6.4
2017-Aug-06 06:58N 50°57' E 001°01'3 0.6
2017-Aug-06 01:44N 51°01' E 001°01'0 0.0
2017-Aug-06 01:18N 51°01' E 001°01'0 0.0
2017-Aug-06 00:54N 51°01' E 001°01'0 0.0
2017-Aug-06 00:30N 51°01' E 001°01'2 2.8
2017-Aug-05 23:46N 50°60' E 001°04'2 6.3
2017-Aug-05 23:23N 50°60' E 001°08'2 5.8
2017-Aug-05 23:00N 50°59' E 001°12'2 5.0
2017-Aug-05 22:30N 50°60' E 001°15'2 4.6
2017-Aug-05 22:00N 51°00' E 001°19'2 4.4
2017-Aug-05 21:30N 51°01' E 001°23'3 4.8
2017-Aug-05 20:58N 51°01' E 001°27'2 5.2
2017-Aug-05 20:30N 51°01' E 001°30'3 5.9
2017-Aug-05 20:00N 51°01' E 001°35'3 6.7
2017-Aug-05 19:30N 51°01' E 001°40'4 7.6
2017-Aug-05 19:00N 51°03' E 001°46'4 8.1
2017-Aug-05 18:30N 51°05' E 001°52'4 8.1
2017-Aug-05 18:00N 51°07' E 001°57'4 8.6
2017-Aug-05 17:30N 51°10' E 002°02'5 9.0
2017-Aug-05 17:00N 51°12' E 002°08'4 8.8
2017-Aug-05 16:30N 51°14' E 002°14'4 8.5
2017-Aug-05 16:00N 51°17' E 002°20'4 8.3
2017-Aug-05 15:30N 51°19' E 002°25'4 8.6
2017-Aug-05 15:00N 51°23' E 002°28'4 8.1
2017-Aug-05 14:30N 51°27' E 002°30'3 6.9
2017-Aug-05 14:00N 51°30' E 002°30'3 6.5
2017-Aug-05 13:30N 51°33' E 002°33'3 6.3
2017-Aug-05 13:00N 51°36' E 002°36'3 6.5
2017-Aug-05 12:30N 51°38' E 002°39'4 7.0
2017-Aug-05 11:59N 51°41' E 002°44'3 7.2
2017-Aug-05 11:30N 51°43' E 002°48'4 6.4
2017-Aug-05 10:53N 51°43' E 002°54'3 6.7
2017-Aug-05 10:22N 51°43' E 002°60'3 6.9
2017-Aug-05 09:56N 51°43' E 003°04'3 6.9
2017-Aug-05 09:29N 51°43' E 003°09'713.8
2017-Aug-05 09:00N 51°47' E 003°18'2 4.4
2017-Aug-05 08:30N 51°49' E 003°21'811.5
2017-Aug-05 07:49N 51°53' E 003°31'2 6.1
2017-Aug-05 07:30N 51°55' E 003°34'5 9.6
2017-Aug-05 07:00N 51°58' E 003°39'4 9.1
2017-Aug-05 06:30N 52°01' E 003°44'4 8.3
2017-Aug-05 06:00N 52°03' E 003°50'4 8.0
2017-Aug-05 05:30N 52°05' E 003°55'4 7.8
2017-Aug-05 05:00N 52°08' E 004°01'4 7.0
2017-Aug-05 04:30N 52°10' E 004°05'3 6.9
2017-Aug-05 04:00N 52°12' E 004°01'4 7.0
2017-Aug-05 03:30N 52°15' E 003°58'3 6.8
2017-Aug-05 03:00N 52°17' E 003°54'3 6.5
2017-Aug-05 02:30N 52°20' E 003°51'3 6.4
2017-Aug-05 02:00N 52°22' E 003°47'2 3.9
2017-Aug-05 01:30N 52°24' E 003°47'2 4.9
2017-Aug-05 01:01N 52°26' E 003°50'2 4.9
2017-Aug-05 00:30N 52°27' E 003°53'2 4.8
2017-Aug-05 00:00N 52°29' E 003°56'2 5.0
2017-Aug-04 23:31N 52°30' E 003°60'3 6.0
2017-Aug-04 23:01N 52°32' E 004°04'3 6.4
2017-Aug-04 22:30N 52°31' E 004°09'3 6.7
2017-Aug-04 22:01N 52°29' E 004°14'3 6.6
2017-Aug-04 21:30N 52°29' E 004°19'3 6.4
2017-Aug-04 21:00N 52°28' E 004°24'4 7.0
2017-Aug-04 20:31N 52°28' E 004°30'2 4.8
2017-Aug-04 20:01N 52°28' E 004°34'1 2.2
2017-Aug-04 19:30N 52°28' E 004°36'0 0.0
2017-Aug-04 19:00N 52°28' E 004°36'0 0.0
2017-Aug-04 18:30N 52°28' E 004°36'0 0.0
2017-Aug-04 18:00N 52°28' E 004°36'0 0.0
2017-Aug-04 17:30N 52°28' E 004°36'0 0.0
2017-Aug-04 17:00N 52°28' E 004°36'0 0.0
2017-Aug-04 16:30N 52°28' E 004°36'0 0.1
2017-Aug-04 16:01N 52°28' E 004°36'3 5.8
2017-Aug-04 15:30N 52°27' E 004°40'3 5.5
2017-Aug-04 15:00N 52°26' E 004°44'3 3.1
2017-Aug-04 14:00N 52°25' E 004°49'3 6.3
2017-Aug-04 13:30N 52°24' E 004°54'3 5.1
2017-Aug-04 13:00N 52°23' E 004°58'0 0.8
2017-Aug-04 12:30N 52°23' E 004°58'3 5.2
2017-Aug-04 12:00N 52°23' E 005°02'3 5.1
2017-Aug-04 11:30N 52°24' E 005°06'2 4.4
2017-Aug-04 11:00N 52°25' E 005°09'2 3.1
2017-Aug-04 10:30N 52°26' E 005°11'1 1.1
2017-Aug-04 10:00N 52°26' E 005°12'3 5.8
2017-Aug-04 09:30N 52°29' E 005°10'4 7.2
2017-Aug-04 09:00N 52°33' E 005°08'4 7.8
2017-Aug-04 08:30N 52°36' E 005°05'2 4.7
2017-Aug-04 08:00N 52°38' E 005°04'0 0.0
2017-Aug-04 07:30N 52°38' E 005°04'0 0.0
2017-Aug-04 07:00N 52°38' E 005°04'  
Track history (hours):
 
Tides and Currents Weather Stations Pressure Air Temp Water Temp Dewpoint Dewpoint Depression Visibility Wind Speed Wind Dir Waves Ship Positions

Bontekoning

Last reported at 2017-Aug-13 02:54 UTC. Time now 2017-Aug-17 05:59 UTC.
Position N 46°49' W 006°05'.

; draft 2.6 m.

Type: Sailing vessel. MMSI: 244107000.

Date/timePositionNaut miles runAvg speedWind from/ knotsBaromVisibWave heightAir tempDewpointWater temp
2017-Aug-13 02:54N 46°49' W 006°05'3 6.8
2017-Aug-13 02:30N 46°51' W 006°03'4 7.0
2017-Aug-13 02:00N 46°54' W 006°00'5 7.3
2017-Aug-13 01:18N 46°58' W 005°57'4 7.4
2017-Aug-13 00:48N 47°02' W 005°54'3 7.6
2017-Aug-13 00:28N 47°04' W 005°52'4 8.5
2017-Aug-12 23:58N 47°08' W 005°49'4 8.3
2017-Aug-12 23:29N 47°11' W 005°47'5 8.0
2017-Aug-12 22:49N 47°16' W 005°43'3 8.4
2017-Aug-12 22:29N 47°19' W 005°41'5 9.1
2017-Aug-12 21:58N 47°23' W 005°39'6 7.2
2017-Aug-12 21:11N 47°28' W 005°35'3 6.6
2017-Aug-12 20:47N 47°30' W 005°33'2 8.1
2017-Aug-12 20:30N 47°32' W 005°32'4 8.0
2017-Aug-12 19:59N 47°36' W 005°29'4 7.8
2017-Aug-12 19:27N 47°40' W 005°26'3 7.6
2017-Aug-12 19:00N 47°43' W 005°24'5 7.5
2017-Aug-12 18:21N 47°47' W 005°21'3 7.2
2017-Aug-12 18:00N 47°49' W 005°19'3 6.5
2017-Aug-12 17:30N 47°52' W 005°17'3 6.0
2017-Aug-12 16:59N 47°55' W 005°15'3 6.2
2017-Aug-12 16:30N 47°58' W 005°13'3 6.0
2017-Aug-12 16:00N 48°01' W 005°11'3 5.8
2017-Aug-12 15:30N 48°03' W 005°09'3 5.1
2017-Aug-12 15:00N 48°04' W 005°06'4 7.2
2017-Aug-12 14:30N 48°06' W 005°01'2 3.7
2017-Aug-12 14:00N 48°07' W 004°58'2 3.2
2017-Aug-12 13:30N 48°08' W 004°57'2 3.3
2017-Aug-12 13:00N 48°09' W 004°55'2 3.7
2017-Aug-12 12:30N 48°10' W 004°53'2 4.9
2017-Aug-12 12:00N 48°12' W 004°51'4 7.4
2017-Aug-12 11:30N 48°14' W 004°46'4 8.6
2017-Aug-12 11:00N 48°17' W 004°41'4 8.9
2017-Aug-12 10:30N 48°20' W 004°36'5 9.1
2017-Aug-12 10:00N 48°22' W 004°30'3 6.5
2017-Aug-12 09:31N 48°24' W 004°26'0 0.0
2017-Aug-12 09:00N 48°24' W 004°26'0 0.0
2017-Aug-12 08:30N 48°24' W 004°26'0 0.0
2017-Aug-12 08:00N 48°24' W 004°26'0 0.0
2017-Aug-12 07:30N 48°24' W 004°26'0 0.0
2017-Aug-12 07:00N 48°24' W 004°26'0 0.0
2017-Aug-12 06:30N 48°24' W 004°26'0 0.0
2017-Aug-12 06:00N 48°24' W 004°26'0 0.0
2017-Aug-12 05:30N 48°24' W 004°26'0 0.0
2017-Aug-12 05:00N 48°24' W 004°26'0 0.0
2017-Aug-12 04:30N 48°24' W 004°26'0 0.0
2017-Aug-12 04:00N 48°24' W 004°26'0 0.0
2017-Aug-12 03:30N 48°24' W 004°26'0 0.0
2017-Aug-12 03:00N 48°24' W 004°26'0 0.0
2017-Aug-12 02:30N 48°24' W 004°26'0 0.0
2017-Aug-12 02:00N 48°24' W 004°26'0 0.0
2017-Aug-12 01:30N 48°24' W 004°26'0 0.0
2017-Aug-12 01:00N 48°24' W 004°26'0 0.0
2017-Aug-12 00:30N 48°24' W 004°26'0 0.0
2017-Aug-12 00:00N 48°24' W 004°26'0 0.0
2017-Aug-11 23:30N 48°24' W 004°26'0 0.0
2017-Aug-11 23:00N 48°24' W 004°26'0 0.0
2017-Aug-11 22:30N 48°24' W 004°26'0 0.0
2017-Aug-11 22:00N 48°24' W 004°26'0 0.0
2017-Aug-11 21:30N 48°24' W 004°26'0 0.0
2017-Aug-11 21:00N 48°24' W 004°26'0 0.0
2017-Aug-11 20:30N 48°24' W 004°26'0 0.0
2017-Aug-11 20:00N 48°24' W 004°26'0 0.0
2017-Aug-11 19:30N 48°24' W 004°26'0 0.0
2017-Aug-11 19:00N 48°24' W 004°26'0 0.0
2017-Aug-11 18:30N 48°24' W 004°26'0 0.0
2017-Aug-11 18:00N 48°24' W 004°26'0 0.0
2017-Aug-11 17:30N 48°24' W 004°26'0 0.0
2017-Aug-11 17:00N 48°24' W 004°26'0 0.0
2017-Aug-11 16:30N 48°24' W 004°26'0 0.0
2017-Aug-11 16:00N 48°24' W 004°26'0 0.0
2017-Aug-11 15:30N 48°24' W 004°26'0 0.0
2017-Aug-11 15:00N 48°24' W 004°26'0 0.0
2017-Aug-11 14:30N 48°24' W 004°26'0 0.0
2017-Aug-11 13:30N 48°24' W 004°26'0 0.0
2017-Aug-11 13:01N 48°24' W 004°26'0 0.0
2017-Aug-11 12:30N 48°24' W 004°26'0 0.0
2017-Aug-11 12:00N 48°24' W 004°26'0 0.0
2017-Aug-11 11:30N 48°24' W 004°26'1 2.0
2017-Aug-11 11:00N 48°23' W 004°26'3 6.3
2017-Aug-11 10:30N 48°22' W 004°31'2 4.7
2017-Aug-11 10:00N 48°21' W 004°34'2 4.2
2017-Aug-11 09:30N 48°20' W 004°37'3 5.7
2017-Aug-11 09:00N 48°19' W 004°41'3 6.7
2017-Aug-11 08:31N 48°17' W 004°46'4 7.3
2017-Aug-11 08:00N 48°17' W 004°51'4 7.7
2017-Aug-11 07:30N 48°18' W 004°57'4 7.5
2017-Aug-11 07:00N 48°20' W 005°01'3 7.0
2017-Aug-11 06:30N 48°22' W 005°05'3 6.5
2017-Aug-11 06:00N 48°24' W 005°08'2 4.9
2017-Aug-11 05:30N 48°27' W 005°10'2 3.3
2017-Aug-11 05:00N 48°28' W 005°11'2 3.1
2017-Aug-11 04:30N 48°30' W 005°11'1 2.3
2017-Aug-11 04:00N 48°30' W 005°10'1 2.5
2017-Aug-11 03:30N 48°31' W 005°08'1 2.8
2017-Aug-11 03:00N 48°31' W 005°06'3 5.7
2017-Aug-11 02:30N 48°32' W 005°02'3 6.2
2017-Aug-11 02:00N 48°32' W 004°58'3 6.9
2017-Aug-11 01:30N 48°33' W 004°52'3 6.8
2017-Aug-11 01:00N 48°35' W 004°48'4 8.2
2017-Aug-11 00:30N 48°38' W 004°43'5 9.5
2017-Aug-11 00:00N 48°40' W 004°37'5 9.6
2017-Aug-10 23:30N 48°42' W 004°30'510.3
2017-Aug-10 23:00N 48°44' W 004°23'5 9.3
2017-Aug-10 22:30N 48°45' W 004°16'5 8.5
2017-Aug-10 21:55N 48°47' W 004°09'8 5.4
2017-Aug-10 20:24N 48°44' W 003°58'0 0.0
2017-Aug-10 20:00N 48°44' W 003°58'  
2017-Aug-07 10:39N 49°45' W 001°59'1 9.7
2017-Aug-07 10:30N 49°46' W 001°57'4 8.4
2017-Aug-07 10:00N 49°46' W 001°51'3 6.2
2017-Aug-07 09:30N 49°47' W 001°46'2 3.0
2017-Aug-07 09:01N 49°48' W 001°48'2 3.5
2017-Aug-07 08:30N 49°48' W 001°51'2 4.4
2017-Aug-07 08:00N 49°47' W 001°54'2 3.1
2017-Aug-07 07:31N 49°46' W 001°53'2 3.1
2017-Aug-07 07:00N 49°46' W 001°50'2 3.7
2017-Aug-07 06:31N 49°46' W 001°48'2 4.7
2017-Aug-07 06:00N 49°45' W 001°44'3 5.2
2017-Aug-07 05:30N 49°44' W 001°40'3 5.8
2017-Aug-07 05:01N 49°43' W 001°36'4 7.3
2017-Aug-07 04:30N 49°46' W 001°34'4 7.8
2017-Aug-07 04:00N 49°50' W 001°32'4 8.1
2017-Aug-07 03:30N 49°53' W 001°28'5 9.7
2017-Aug-07 03:01N 49°53' W 001°21'4 8.9
2017-Aug-07 02:30N 49°56' W 001°15'5 9.5
2017-Aug-07 02:00N 49°59' W 001°10'5 9.4
2017-Aug-07 01:30N 50°02' W 001°04'5 9.2
2017-Aug-07 00:59N 50°06' W 000°59'27 7.5
2017-Aug-06 21:23N 50°27' W 000°33'2 5.7
2017-Aug-06 20:58N 50°29' W 000°32'3 5.4
2017-Aug-06 20:30N 50°32' W 000°31'3 5.0
2017-Aug-06 20:00N 50°34' W 000°29'3 5.5
2017-Aug-06 19:30N 50°37' W 000°28'3 6.0
2017-Aug-06 19:00N 50°39' W 000°26'3 6.0
2017-Aug-06 18:30N 50°42' W 000°25'2 4.2
2017-Aug-06 18:00N 50°44' W 000°22'3 5.2
2017-Aug-06 17:30N 50°43' W 000°18'3 5.0
2017-Aug-06 17:00N 50°45' W 000°15'3 5.7
2017-Aug-06 16:30N 50°47' W 000°13'2 3.9
2017-Aug-06 16:00N 50°48' W 000°11'3 5.2
2017-Aug-06 15:30N 50°47' W 000°07'3 5.4
2017-Aug-06 15:00N 50°46' W 000°03'3 5.6
2017-Aug-06 14:30N 50°45' E 000°01'3 5.8
2017-Aug-06 14:00N 50°44' E 000°05'3 6.6
2017-Aug-06 13:30N 50°43' E 000°10'3 5.6
2017-Aug-06 13:00N 50°43' E 000°15'4 5.4
2017-Aug-06 12:18N 50°44' E 000°20'2 5.7
2017-Aug-06 11:55N 50°44' E 000°24'2 5.9
2017-Aug-06 11:30N 50°45' E 000°27'3 5.5
2017-Aug-06 10:59N 50°47' E 000°31'3 5.5
2017-Aug-06 10:29N 50°48' E 000°35'3 5.3
2017-Aug-06 09:59N 50°49' E 000°39'3 5.3
2017-Aug-06 09:30N 50°50' E 000°43'3 5.4
2017-Aug-06 08:59N 50°51' E 000°47'3 5.2
2017-Aug-06 08:30N 50°52' E 000°50'3 5.4
2017-Aug-06 07:53N 50°53' E 000°55'2 5.8
2017-Aug-06 07:30N 50°54' E 000°59'3 6.4
2017-Aug-06 06:58N 50°57' E 001°01'3 0.6
2017-Aug-06 01:44N 51°01' E 001°01'0 0.0
2017-Aug-06 01:18N 51°01' E 001°01'0 0.0
2017-Aug-06 00:54N 51°01' E 001°01'0 0.0
2017-Aug-06 00:30N 51°01' E 001°01'2 2.8
2017-Aug-05 23:46N 50°60' E 001°04'2 6.3
2017-Aug-05 23:23N 50°60' E 001°08'2 5.8
2017-Aug-05 23:00N 50°59' E 001°12'2 5.0
2017-Aug-05 22:30N 50°60' E 001°15'2 4.6
2017-Aug-05 22:00N 51°00' E 001°19'2 4.4
2017-Aug-05 21:30N 51°01' E 001°23'3 4.8
2017-Aug-05 20:58N 51°01' E 001°27'2 5.2
2017-Aug-05 20:30N 51°01' E 001°30'3 5.9
2017-Aug-05 20:00N 51°01' E 001°35'3 6.7
2017-Aug-05 19:30N 51°01' E 001°40'4 7.6
2017-Aug-05 19:00N 51°03' E 001°46'4 8.1
2017-Aug-05 18:30N 51°05' E 001°52'4 8.1
2017-Aug-05 18:00N 51°07' E 001°57'4 8.6
2017-Aug-05 17:30N 51°10' E 002°02'5 9.0
2017-Aug-05 17:00N 51°12' E 002°08'4 8.8
2017-Aug-05 16:30N 51°14' E 002°14'4 8.5
2017-Aug-05 16:00N 51°17' E 002°20'4 8.3
2017-Aug-05 15:30N 51°19' E 002°25'4 8.6
2017-Aug-05 15:00N 51°23' E 002°28'4 8.1
2017-Aug-05 14:30N 51°27' E 002°30'3 6.9
2017-Aug-05 14:00N 51°30' E 002°30'3 6.5
2017-Aug-05 13:30N 51°33' E 002°33'3 6.3
2017-Aug-05 13:00N 51°36' E 002°36'3 6.5
2017-Aug-05 12:30N 51°38' E 002°39'4 7.0
2017-Aug-05 11:59N 51°41' E 002°44'3 7.2
2017-Aug-05 11:30N 51°43' E 002°48'4 6.4
2017-Aug-05 10:53N 51°43' E 002°54'3 6.7
2017-Aug-05 10:22N 51°43' E 002°60'3 6.9
2017-Aug-05 09:56N 51°43' E 003°04'3 6.9
2017-Aug-05 09:29N 51°43' E 003°09'713.8
2017-Aug-05 09:00N 51°47' E 003°18'2 4.4
2017-Aug-05 08:30N 51°49' E 003°21'811.5
2017-Aug-05 07:49N 51°53' E 003°31'2 6.1
2017-Aug-05 07:30N 51°55' E 003°34'5 9.6
2017-Aug-05 07:00N 51°58' E 003°39'4 9.1
2017-Aug-05 06:30N 52°01' E 003°44'4 8.3
2017-Aug-05 06:00N 52°03' E 003°50'4 8.0
2017-Aug-05 05:30N 52°05' E 003°55'4 7.8
2017-Aug-05 05:00N 52°08' E 004°01'4 7.0
2017-Aug-05 04:30N 52°10' E 004°05'3 6.9
2017-Aug-05 04:00N 52°12' E 004°01'4 7.0
2017-Aug-05 03:30N 52°15' E 003°58'3 6.8
2017-Aug-05 03:00N 52°17' E 003°54'3 6.5
2017-Aug-05 02:30N 52°20' E 003°51'3 6.4
2017-Aug-05 02:00N 52°22' E 003°47'2 3.9
2017-Aug-05 01:30N 52°24' E 003°47'2 4.9
2017-Aug-05 01:01N 52°26' E 003°50'2 4.9
2017-Aug-05 00:30N 52°27' E 003°53'2 4.8
2017-Aug-05 00:00N 52°29' E 003°56'2 5.0
2017-Aug-04 23:31N 52°30' E 003°60'3 6.0
2017-Aug-04 23:01N 52°32' E 004°04'3 6.4
2017-Aug-04 22:30N 52°31' E 004°09'3 6.7
2017-Aug-04 22:01N 52°29' E 004°14'3 6.6
2017-Aug-04 21:30N 52°29' E 004°19'3 6.4
2017-Aug-04 21:00N 52°28' E 004°24'4 7.0
2017-Aug-04 20:31N 52°28' E 004°30'2 4.8
2017-Aug-04 20:01N 52°28' E 004°34'1 2.2
2017-Aug-04 19:30N 52°28' E 004°36'0 0.0
2017-Aug-04 19:00N 52°28' E 004°36'0 0.0
2017-Aug-04 18:30N 52°28' E 004°36'0 0.0
2017-Aug-04 18:00N 52°28' E 004°36'0 0.0
2017-Aug-04 17:30N 52°28' E 004°36'0 0.0
2017-Aug-04 17:00N 52°28' E 004°36'0 0.0
2017-Aug-04 16:30N 52°28' E 004°36'0 0.1
2017-Aug-04 16:01N 52°28' E 004°36'3 5.8
2017-Aug-04 15:30N 52°27' E 004°40'3 5.5
2017-Aug-04 15:00N 52°26' E 004°44'3 3.1
2017-Aug-04 14:00N 52°25' E 004°49'3 6.3
2017-Aug-04 13:30N 52°24' E 004°54'3 5.1
2017-Aug-04 13:00N 52°23' E 004°58'0 0.8
2017-Aug-04 12:30N 52°23' E 004°58'3 5.2
2017-Aug-04 12:00N 52°23' E 005°02'3 5.1
2017-Aug-04 11:30N 52°24' E 005°06'2 4.4
2017-Aug-04 11:00N 52°25' E 005°09'2 3.1
2017-Aug-04 10:30N 52°26' E 005°11'1 1.1
2017-Aug-04 10:00N 52°26' E 005°12'3 5.8
2017-Aug-04 09:30N 52°29' E 005°10'4 7.2
2017-Aug-04 09:00N 52°33' E 005°08'4 7.8
2017-Aug-04 08:30N 52°36' E 005°05'2 4.7
2017-Aug-04 08:00N 52°38' E 005°04'0 0.0
2017-Aug-04 07:30N 52°38' E 005°04'0 0.0
2017-Aug-04 07:00N 52°38' E 005°04'  

Dump ship's entire track history